createdAt,value
2019-02-27T00:02:00.205Z,40.76
2019-02-27T00:04:26.154Z,40.86
2019-02-27T00:06:52.293Z,41.20
2019-02-27T00:09:18.311Z,41.12
2019-02-27T00:11:46.681Z,41.24
2019-02-27T00:14:12.179Z,40.86
2019-02-27T00:16:38.109Z,40.59
2019-02-27T00:19:04.144Z,40.65
2019-02-27T00:21:33.355Z,40.75
2019-02-27T00:23:59.437Z,41.22
2019-02-27T00:26:25.270Z,41.50
2019-02-27T00:28:51.201Z,41.57
2019-02-27T00:31:17.037Z,41.34
2019-02-27T00:33:42.979Z,41.08
2019-02-27T00:36:12.010Z,40.64
2019-02-27T00:38:36.829Z,40.95
2019-02-27T00:41:02.674Z,41.22
2019-02-27T00:43:29.087Z,41.79
2019-02-27T00:45:55.096Z,41.39
2019-02-27T00:48:21.181Z,41.34
2019-02-27T00:50:47.023Z,41.68
2019-02-27T00:53:12.894Z,41.83
2019-02-27T00:55:39.547Z,41.83
2019-02-27T00:58:05.518Z,41.92
2019-02-27T01:00:31.487Z,42.20
2019-02-27T01:02:57.358Z,42.61
2019-02-27T01:05:23.500Z,43.01
2019-02-27T01:07:51.936Z,43.39
2019-02-27T01:10:17.253Z,43.75
2019-02-27T01:12:43.223Z,44.26
2019-02-27T01:15:11.311Z,43.83
2019-02-27T01:17:37.379Z,43.79
2019-02-27T01:20:13.549Z,42.52
2019-02-27T01:22:39.463Z,42.36
2019-02-27T01:25:05.518Z,42.66
2019-02-27T01:27:31.514Z,41.92
2019-02-27T01:29:57.462Z,41.02
2019-02-27T01:32:23.285Z,41.02
2019-02-27T01:34:49.283Z,41.08
2019-02-27T01:37:15.111Z,40.80
2019-02-27T01:39:41.855Z,40.77
2019-02-27T01:42:08.942Z,40.91
2019-02-27T01:44:34.778Z,40.65
2019-02-27T01:47:02.396Z,40.04
2019-02-27T01:49:28.529Z,39.64
2019-02-27T01:51:54.361Z,40.03
2019-02-27T01:54:20.321Z,39.40
2019-02-27T01:56:46.161Z,39.73
2019-02-27T01:59:14.055Z,39.66
2019-02-27T02:01:39.939Z,39.74
2019-02-27T02:04:05.777Z,39.41
2019-02-27T02:06:32.444Z,39.33
2019-02-27T02:09:10.718Z,39.26
2019-02-27T02:11:36.566Z,39.39
2019-02-27T02:14:15.413Z,39.54
2019-02-27T02:16:57.390Z,39.25
2019-02-27T02:19:36.217Z,39.47
2019-02-27T02:22:14.685Z,39.27
2019-02-27T02:25:02.528Z,38.93
2019-02-27T02:27:44.367Z,39.29
2019-02-27T02:30:32.150Z,39.80
2019-02-27T02:33:30.712Z,39.89
2019-02-27T02:36:03.447Z,39.53
2019-02-27T02:38:53.027Z,39.82
2019-02-27T02:41:37.761Z,40.51
2019-02-27T02:44:21.087Z,40.81
2019-02-27T02:46:53.771Z,40.92
2019-02-27T02:49:42.624Z,41.14
2019-02-27T02:52:22.521Z,42.01
2019-02-27T02:54:58.083Z,42.30
2019-02-27T02:57:44.837Z,42.04
2019-02-27T03:00:26.701Z,42.43
2019-02-27T03:03:20.958Z,42.23
2019-02-27T03:06:02.611Z,42.27
2019-02-27T03:08:47.089Z,42.31
2019-02-27T03:11:39.036Z,42.31
2019-02-27T03:14:20.384Z,42.14
2019-02-27T03:17:18.056Z,41.93
2019-02-27T03:19:58.362Z,41.83
2019-02-27T03:22:31.270Z,41.64
2019-02-27T03:25:09.953Z,40.11
2019-02-27T03:28:01.751Z,39.34
2019-02-27T03:30:36.864Z,39.52
2019-02-27T03:33:23.059Z,39.44
2019-02-27T03:35:53.252Z,39.44
2019-02-27T03:38:39.415Z,39.72
2019-02-27T03:41:24.374Z,39.83
2019-02-27T03:44:12.330Z,39.83
2019-02-27T03:46:54.167Z,39.66
2019-02-27T03:49:29.882Z,39.28
2019-02-27T03:52:25.547Z,39.74
2019-02-27T03:55:04.384Z,39.61
2019-02-27T03:58:00.133Z,39.46
2019-02-27T04:00:32.509Z,37.99
2019-02-27T04:03:02.211Z,38.39
2019-02-27T04:05:46.237Z,38.29
2019-02-27T04:08:27.705Z,38.86
2019-02-27T04:10:53.654Z,38.52
2019-02-27T04:13:19.481Z,38.79
2019-02-27T04:15:45.535Z,39.10
2019-02-27T04:18:11.158Z,39.10
2019-02-27T04:20:37.155Z,39.15
2019-02-27T04:23:03.027Z,38.34
2019-02-27T04:25:31.398Z,38.62
2019-02-27T04:27:56.832Z,38.72
2019-02-27T04:30:22.681Z,39.10
2019-02-27T04:32:48.988Z,38.92
2019-02-27T04:35:15.012Z,38.85
2019-02-27T04:37:40.856Z,38.82
2019-02-27T04:40:10.784Z,39.13
2019-02-27T04:42:34.973Z,39.14
2019-02-27T04:45:00.860Z,39.09
2019-02-27T04:47:29.172Z,39.30
2019-02-27T04:49:54.562Z,39.28
2019-02-27T04:52:21.918Z,39.97
2019-02-27T04:54:48.348Z,40.12
2019-02-27T04:57:14.276Z,40.22
2019-02-27T04:59:40.199Z,40.50
2019-02-27T05:02:06.187Z,40.70
2019-02-27T05:04:35.007Z,40.25
2019-02-27T05:06:59.796Z,40.25
2019-02-27T05:09:25.668Z,40.11
2019-02-27T05:11:51.588Z,40.22
2019-02-27T05:14:17.471Z,40.67
2019-02-27T05:16:46.993Z,40.46
2019-02-27T05:19:11.094Z,40.23
2019-02-27T05:21:36.986Z,39.70
2019-02-27T05:24:05.176Z,39.98
2019-02-27T05:26:30.728Z,40.39
2019-02-27T05:28:56.595Z,40.67
2019-02-27T05:31:22.438Z,40.67
2019-02-27T05:33:48.398Z,39.60
2019-02-27T05:36:14.247Z,40.75
2019-02-27T05:38:41.027Z,40.47
2019-02-27T05:41:08.144Z,40.57
2019-02-27T05:43:33.989Z,39.92
2019-02-27T05:46:02.755Z,39.86
2019-02-27T05:48:27.584Z,39.40
2019-02-27T05:50:54.009Z,38.90
2019-02-27T05:53:22.099Z,39.12
2019-02-27T05:55:47.560Z,39.08
2019-02-27T05:58:13.464Z,39.60
2019-02-27T06:00:39.293Z,39.22
2019-02-27T06:03:05.262Z,39.12
2019-02-27T06:05:33.652Z,39.29
2019-02-27T06:08:02.092Z,40.01
2019-02-27T06:10:26.743Z,40.40
2019-02-27T06:12:52.717Z,40.52
2019-02-27T06:15:18.663Z,40.91
2019-02-27T06:17:48.824Z,40.88
2019-02-27T06:20:14.077Z,40.54
2019-02-27T06:22:39.992Z,39.97
2019-02-27T06:25:12.372Z,39.97
2019-02-27T06:27:39.454Z,39.82
2019-02-27T06:30:12.555Z,39.72
2019-02-27T06:32:38.505Z,39.70
2019-02-27T06:35:07.180Z,39.40
2019-02-27T06:37:33.023Z,39.19
2019-02-27T06:39:58.869Z,38.23
2019-02-27T06:42:24.830Z,37.91
2019-02-27T06:44:50.777Z,37.90
2019-02-27T06:47:16.764Z,37.50
2019-02-27T06:49:42.694Z,37.52
2019-02-27T06:52:09.277Z,37.48
2019-02-27T06:54:37.760Z,37.55
2019-02-27T06:57:07.482Z,36.78
2019-02-27T06:59:31.613Z,36.36
2019-02-27T07:01:57.547Z,36.22
2019-02-27T07:04:23.403Z,35.90
2019-02-27T07:06:49.249Z,36.05
2019-02-27T07:09:15.202Z,36.53
2019-02-27T07:11:44.880Z,36.45
2019-02-27T07:14:08.911Z,36.49
2019-02-27T07:16:34.771Z,36.82
2019-02-27T07:19:00.633Z,36.80
2019-02-27T07:21:26.465Z,36.88
2019-02-27T07:23:57.698Z,36.92
2019-02-27T07:26:20.090Z,36.57
2019-02-27T07:28:46.053Z,36.38
2019-02-27T07:31:12.558Z,37.36
2019-02-27T07:33:40.555Z,36.27
2019-02-27T07:36:06.362Z,36.21
2019-02-27T07:38:32.299Z,36.32
2019-02-27T07:40:58.358Z,35.98
2019-02-27T07:43:24.207Z,35.72
2019-02-27T07:45:50.039Z,35.72
2019-02-27T07:48:16.026Z,37.63
2019-02-27T07:50:41.857Z,36.60
2019-02-27T07:53:07.706Z,36.53
2019-02-27T07:55:33.561Z,36.53
2019-02-27T07:57:59.531Z,36.26
2019-02-27T08:00:26.396Z,36.84
2019-02-27T08:02:52.555Z,36.30
2019-02-27T08:05:18.515Z,36.54
2019-02-27T08:07:48.784Z,36.08
2019-02-27T08:10:19.795Z,35.88
2019-02-27T08:12:45.841Z,36.03
2019-02-27T08:15:14.213Z,35.50
2019-02-27T08:17:40.183Z,35.67
2019-02-27T08:20:07.910Z,34.33
2019-02-27T08:22:33.860Z,35.00
2019-02-27T08:24:59.761Z,34.10
2019-02-27T08:27:25.602Z,33.77
2019-02-27T08:29:54.939Z,33.23
2019-02-27T08:32:20.917Z,33.86
2019-02-27T08:34:46.761Z,34.28
2019-02-27T08:37:12.651Z,33.48
2019-02-27T08:39:38.614Z,33.12
2019-02-27T08:42:04.574Z,33.58
2019-02-27T08:44:30.561Z,34.09
2019-02-27T08:46:56.413Z,33.83
2019-02-27T08:49:24.964Z,33.49
2019-02-27T08:51:50.359Z,32.91
2019-02-27T08:54:16.193Z,32.00
2019-02-27T08:56:44.020Z,32.56
2019-02-27T08:59:10.224Z,32.20
2019-02-27T09:01:37.786Z,31.99
2019-02-27T09:04:06.063Z,31.63
2019-02-27T09:06:31.751Z,31.92
2019-02-27T09:08:57.653Z,31.87
2019-02-27T09:11:23.592Z,31.48
2019-02-27T09:13:49.428Z,31.35
2019-02-27T09:16:15.379Z,31.39
2019-02-27T09:18:41.346Z,31.70
2019-02-27T09:21:07.387Z,31.61
2019-02-27T09:23:33.644Z,31.16
2019-02-27T09:26:02.518Z,30.27
2019-02-27T09:28:27.262Z,31.10
2019-02-27T09:30:53.145Z,29.39
2019-02-27T09:33:20.210Z,30.11
2019-02-27T09:35:46.743Z,30.09
2019-02-27T09:38:12.697Z,29.25
2019-02-27T09:40:39.578Z,29.06
2019-02-27T09:43:06.333Z,29.27
2019-02-27T09:45:34.816Z,29.22
2019-02-27T09:48:01.440Z,28.74
2019-02-27T09:50:36.845Z,28.99
2019-02-27T09:53:04.317Z,28.74
2019-02-27T09:55:30.476Z,28.33
2019-02-27T09:57:56.411Z,27.61
2019-02-27T10:00:52.258Z,27.49
2019-02-27T10:03:21.272Z,28.19
2019-02-27T10:05:46.466Z,27.68
2019-02-27T10:08:12.569Z,26.89
2019-02-27T10:10:38.818Z,26.89
2019-02-27T10:13:04.772Z,26.93
2019-02-27T10:15:30.631Z,26.71
2019-02-27T10:17:56.581Z,28.52
2019-02-27T10:20:22.541Z,27.87
2019-02-27T10:22:48.460Z,28.82
2019-02-27T10:25:14.527Z,28.44
2019-02-27T10:27:40.587Z,28.99
2019-02-27T10:30:14.069Z,28.67
2019-02-27T10:32:40.209Z,28.73
2019-02-27T10:35:08.068Z,27.87
2019-02-27T10:37:34.020Z,27.81
2019-02-27T10:40:00.251Z,27.63
2019-02-27T10:42:26.305Z,27.34
2019-02-27T10:44:52.165Z,27.80
2019-02-27T10:47:18.075Z,27.20
2019-02-27T10:49:44.060Z,27.40
2019-02-27T10:52:09.925Z,27.19
2019-02-27T10:54:37.023Z,27.52
2019-02-27T10:57:03.531Z,27.46
2019-02-27T10:59:29.391Z,27.76
2019-02-27T11:01:55.319Z,27.56
2019-02-27T11:04:21.435Z,27.75
2019-02-27T11:06:47.387Z,28.31
2019-02-27T11:09:22.249Z,28.55
2019-02-27T11:11:48.761Z,28.00
2019-02-27T11:14:14.746Z,28.61
2019-02-27T11:16:40.576Z,29.02
2019-02-27T11:19:06.682Z,29.06
2019-02-27T11:21:32.611Z,29.58
2019-02-27T11:23:58.433Z,29.52
2019-02-27T11:26:24.537Z,29.53
2019-02-27T11:28:50.447Z,29.49
2019-02-27T11:31:16.381Z,29.61
2019-02-27T11:33:42.733Z,29.51
2019-02-27T11:36:08.674Z,29.36
2019-02-27T11:38:34.600Z,29.44
2019-02-27T11:41:00.695Z,29.54
2019-02-27T11:43:26.631Z,29.21
2019-02-27T11:45:57.499Z,29.31
2019-02-27T11:48:22.888Z,29.02
2019-02-27T11:50:49.502Z,28.87
2019-02-27T11:53:15.440Z,28.87
2019-02-27T11:55:41.583Z,28.79
2019-02-27T11:58:07.587Z,28.75
2019-02-27T12:00:33.922Z,28.21
2019-02-27T12:02:59.762Z,28.06
2019-02-27T12:05:30.304Z,28.66
2019-02-27T12:07:54.783Z,27.66
2019-02-27T12:10:29.485Z,27.45
2019-02-27T12:12:59.500Z,27.28
2019-02-27T12:15:23.519Z,27.23
2019-02-27T12:17:49.461Z,27.17
2019-02-27T12:20:18.845Z,26.95
2019-02-27T12:22:45.065Z,26.85
2019-02-27T12:25:15.140Z,26.16
2019-02-27T12:27:48.976Z,26.50
2019-02-27T12:30:12.483Z,26.35
2019-02-27T12:32:38.424Z,26.38
2019-02-27T12:35:08.218Z,26.27
2019-02-27T12:37:35.972Z,26.08
2019-02-27T12:40:04.103Z,25.26
2019-02-27T12:42:37.104Z,22.38
2019-02-27T12:44:57.716Z,16.56
2019-02-27T12:47:23.577Z,13.29
2019-02-27T12:49:51.534Z,12.91
2019-02-27T12:52:17.200Z,14.87
2019-02-27T12:54:43.233Z,13.24
2019-02-27T12:57:09.216Z,12.02
2019-02-27T12:59:35.152Z,12.37
2019-02-27T13:02:08.115Z,11.37
2019-02-27T13:04:28.986Z,12.17
2019-02-27T13:06:54.923Z,12.79
2019-02-27T13:09:20.761Z,12.18
2019-02-27T13:11:46.621Z,11.91
2019-02-27T13:14:12.451Z,11.86
2019-02-27T13:16:38.417Z,10.35
2019-02-27T13:19:07.086Z,10.13
2019-02-27T13:21:32.267Z,12.36
2019-02-27T13:23:58.082Z,11.39
2019-02-27T13:26:23.975Z,8.95
2019-02-27T13:28:49.943Z,9.23
2019-02-27T13:31:16.229Z,11.07
2019-02-27T13:33:44.713Z,12.65
2019-02-27T13:36:12.756Z,10.40
2019-02-27T13:38:38.605Z,10.43
2019-02-27T13:41:04.670Z,8.83
2019-02-27T13:43:30.518Z,7.28
2019-02-27T13:45:56.469Z,8.79
2019-02-27T13:48:22.378Z,8.18
2019-02-27T13:50:48.316Z,7.47
2019-02-27T13:53:14.285Z,9.01
2019-02-27T13:55:40.529Z,9.01
2019-02-27T13:58:06.347Z,9.83
2019-02-27T14:00:34.283Z,9.73
2019-02-27T14:03:00.431Z,10.51
2019-02-27T14:05:26.462Z,8.69
2019-02-27T14:07:57.275Z,8.62
2019-02-27T14:10:23.675Z,7.99
2019-02-27T14:12:49.727Z,8.39
2019-02-27T14:15:17.763Z,8.71
2019-02-27T14:17:43.845Z,9.55
2019-02-27T14:20:14.820Z,9.20
2019-02-27T14:22:41.238Z,8.94
2019-02-27T14:25:10.682Z,8.49
2019-02-27T14:27:36.608Z,9.28
2019-02-27T14:30:08.009Z,7.67
2019-02-27T14:32:33.914Z,7.27
2019-02-27T14:35:00.571Z,7.59
2019-02-27T14:37:27.476Z,6.29
2019-02-27T14:39:53.330Z,7.31
2019-02-27T14:42:20.564Z,8.33
2019-02-27T14:44:47.023Z,8.23
2019-02-27T14:47:12.957Z,8.46
2019-02-27T14:49:38.973Z,7.47
2019-02-27T14:52:04.936Z,8.10
2019-02-27T14:54:30.902Z,8.21
2019-02-27T14:56:56.871Z,7.50
2019-02-27T14:59:22.819Z,7.34
2019-02-27T15:01:49.456Z,7.96
2019-02-27T15:04:15.447Z,7.50
2019-02-27T15:06:41.283Z,6.80
2019-02-27T15:09:07.310Z,7.99
2019-02-27T15:11:33.290Z,7.89
2019-02-27T15:14:00.596Z,6.85
2019-02-27T15:16:26.968Z,7.58
2019-02-27T15:18:55.844Z,8.54
2019-02-27T15:21:20.979Z,8.50
2019-02-27T15:23:46.940Z,9.47
2019-02-27T15:26:16.028Z,9.12
2019-02-27T15:28:41.695Z,8.61
2019-02-27T15:31:07.738Z,10.24
2019-02-27T15:33:35.907Z,9.12
2019-02-27T15:36:04.387Z,9.95
2019-02-27T15:38:33.595Z,13.83
2019-02-27T15:41:02.374Z,17.62
2019-02-27T15:43:27.447Z,19.17
2019-02-27T15:45:53.476Z,19.81
2019-02-27T15:48:19.426Z,20.67
2019-02-27T15:50:45.277Z,21.71
2019-02-27T15:53:14.584Z,22.26
2019-02-27T15:55:39.082Z,22.98
2019-02-27T15:58:05.058Z,23.08
2019-02-27T16:00:31.188Z,23.81
2019-02-27T16:02:57.273Z,24.06
2019-02-27T16:05:23.202Z,24.06
2019-02-27T16:07:49.802Z,24.64
2019-02-27T16:10:23.348Z,25.07
2019-02-27T16:12:49.743Z,24.93
2019-02-27T16:15:17.842Z,25.47
2019-02-27T16:17:43.968Z,25.37
2019-02-27T16:20:16.857Z,26.17
2019-02-27T16:22:42.995Z,26.22
2019-02-27T16:25:13.980Z,26.15
2019-02-27T16:27:39.391Z,26.42
2019-02-27T16:30:17.104Z,26.72
2019-02-27T16:32:47.990Z,27.13
2019-02-27T16:35:11.338Z,27.11
2019-02-27T16:37:37.288Z,27.26
2019-02-27T16:40:09.479Z,27.46
2019-02-27T16:42:36.366Z,27.80
2019-02-27T16:45:06.696Z,27.83
2019-02-27T16:47:32.865Z,28.10
2019-02-27T16:49:58.829Z,28.71
2019-02-27T16:52:24.829Z,28.88
2019-02-27T16:54:50.810Z,29.32
2019-02-27T16:57:21.210Z,29.87
2019-02-27T16:59:45.326Z,29.87
2019-02-27T17:02:12.144Z,30.28
2019-02-27T17:04:37.987Z,30.94
2019-02-27T17:07:03.972Z,30.86
2019-02-27T17:09:35.048Z,31.04
2019-02-27T17:12:04.224Z,31.59
2019-02-27T17:14:29.041Z,31.89
2019-02-27T17:16:55.022Z,32.19
2019-02-27T17:19:20.963Z,33.45
2019-02-27T17:21:46.908Z,33.57
2019-02-27T17:24:12.815Z,33.91
2019-02-27T17:26:39.787Z,33.73
2019-02-27T17:29:05.736Z,34.26
2019-02-27T17:31:31.813Z,34.18
2019-02-27T17:33:58.073Z,35.25
2019-02-27T17:36:25.952Z,35.57
2019-02-27T17:38:51.807Z,35.37
2019-02-27T17:41:17.686Z,35.86
2019-02-27T17:43:43.581Z,35.66
2019-02-27T17:46:09.416Z,35.98
2019-02-27T17:48:35.672Z,36.20
2019-02-27T17:51:05.489Z,36.75
2019-02-27T17:53:29.568Z,36.83
2019-02-27T17:55:56.378Z,36.82
2019-02-27T17:58:22.260Z,37.80
2019-02-27T18:00:51.229Z,36.87
2019-02-27T18:03:20.659Z,36.59
2019-02-27T18:05:46.566Z,36.61
2019-02-27T18:08:15.791Z,36.88
2019-02-27T18:10:40.437Z,37.68
2019-02-27T18:13:06.450Z,36.79
2019-02-27T18:15:32.402Z,36.38
2019-02-27T18:17:58.428Z,35.79
2019-02-27T18:20:25.815Z,35.83
2019-02-27T18:22:51.909Z,35.79
2019-02-27T18:25:18.364Z,35.73
2019-02-27T18:27:44.323Z,36.05
2019-02-27T18:30:15.526Z,36.24
2019-02-27T18:32:41.531Z,36.10
2019-02-27T18:35:07.552Z,36.41
2019-02-27T18:37:33.593Z,36.35
2019-02-27T18:39:59.869Z,36.47
2019-02-27T18:42:29.530Z,36.57
2019-02-27T18:44:55.475Z,36.52
2019-02-27T18:47:21.359Z,36.24
2019-02-27T18:49:49.086Z,36.46
2019-02-27T18:52:21.188Z,37.24
2019-02-27T18:54:43.162Z,37.62
2019-02-27T18:57:11.926Z,37.74
2019-02-27T18:59:37.999Z,37.94
2019-02-27T19:02:04.041Z,37.71
2019-02-27T19:04:35.083Z,37.55
2019-02-27T19:06:57.966Z,37.95
2019-02-27T19:09:23.918Z,37.91
2019-02-27T19:11:50.886Z,37.33
2019-02-27T19:14:17.654Z,36.78
2019-02-27T19:16:43.702Z,36.79
2019-02-27T19:19:09.920Z,36.87
2019-02-27T19:21:35.944Z,36.74
2019-02-27T19:24:01.977Z,37.18
2019-02-27T19:26:28.001Z,36.89
2019-02-27T19:28:59.312Z,36.92
2019-02-27T19:31:21.870Z,37.39
2019-02-27T19:33:47.979Z,37.67
2019-02-27T19:36:19.217Z,38.12
2019-02-27T19:38:44.242Z,38.16
2019-02-27T19:41:09.795Z,38.26
2019-02-27T19:43:35.640Z,38.18
2019-02-27T19:46:01.740Z,37.97
2019-02-27T19:48:28.946Z,38.43
2019-02-27T19:50:55.631Z,38.40
2019-02-27T19:53:21.540Z,38.32
2019-02-27T19:55:47.535Z,38.77
2019-02-27T19:58:17.139Z,38.72
2019-02-27T20:00:48.261Z,38.81
2019-02-27T20:03:16.174Z,38.75
2019-02-27T20:05:42.485Z,38.70
2019-02-27T20:08:10.819Z,38.73
2019-02-27T20:10:39.900Z,38.87
2019-02-27T20:13:07.062Z,39.03
2019-02-27T20:15:35.083Z,38.93
2019-02-27T20:18:01.010Z,39.01
2019-02-27T20:20:27.102Z,38.77
2019-02-27T20:22:54.720Z,38.68
2019-02-27T20:25:26.085Z,39.55
2019-02-27T20:27:52.581Z,39.86
2019-02-27T20:30:20.202Z,39.63
2019-02-27T20:32:47.078Z,39.46
2019-02-27T20:35:13.660Z,39.41
2019-02-27T20:37:41.387Z,39.50
2019-02-27T20:40:10.785Z,40.02
2019-02-27T20:42:37.647Z,40.12
2019-02-27T20:45:10.560Z,40.10
2019-02-27T20:47:37.304Z,39.78
2019-02-27T20:50:08.873Z,39.67
2019-02-27T20:52:35.348Z,39.84
2019-02-27T20:55:01.526Z,39.63
2019-02-27T20:57:27.576Z,39.74
2019-02-27T20:59:53.518Z,39.68
2019-02-27T21:02:19.706Z,39.75
2019-02-27T21:04:45.867Z,39.23
2019-02-27T21:07:11.713Z,39.44
2019-02-27T21:09:37.736Z,39.18
2019-02-27T21:12:05.349Z,39.24
2019-02-27T21:14:32.433Z,39.53
2019-02-27T21:16:58.261Z,39.89
2019-02-27T21:19:24.116Z,39.49
2019-02-27T21:21:53.643Z,39.61
2019-02-27T21:24:17.927Z,39.49
2019-02-27T21:26:43.763Z,39.57
2019-02-27T21:29:09.925Z,39.83
2019-02-27T21:31:35.936Z,39.41
2019-02-27T21:34:01.754Z,39.65
2019-02-27T21:36:27.775Z,39.47
2019-02-27T21:38:53.707Z,39.79
2019-02-27T21:41:19.539Z,39.74
2019-02-27T21:43:45.376Z,39.92
2019-02-27T21:46:14.598Z,40.15
2019-02-27T21:48:41.616Z,40.39
2019-02-27T21:51:07.522Z,40.75
2019-02-27T21:53:33.349Z,40.89
2019-02-27T21:55:59.168Z,41.18
2019-02-27T21:58:25.899Z,40.92
2019-02-27T22:00:51.722Z,41.15
2019-02-27T22:03:17.673Z,40.74
2019-02-27T22:05:44.388Z,40.84
2019-02-27T22:08:10.212Z,40.81
2019-02-27T22:10:36.089Z,40.84
2019-02-27T22:13:02.144Z,41.27
2019-02-27T22:15:28.949Z,41.44
2019-02-27T22:17:55.018Z,41.14
2019-02-27T22:20:21.041Z,41.28
2019-02-27T22:22:47.064Z,41.31
2019-02-27T22:25:13.038Z,41.55
2019-02-27T22:27:38.986Z,41.56
2019-02-27T22:30:08.610Z,41.35
2019-02-27T22:32:34.514Z,40.89
2019-02-27T22:35:02.824Z,40.84
2019-02-27T22:37:28.116Z,41.58
2019-02-27T22:39:53.959Z,41.72
2019-02-27T22:42:19.768Z,42.09
2019-02-27T22:44:45.618Z,42.15
2019-02-27T22:47:11.490Z,42.33
2019-02-27T22:49:37.600Z,42.10
2019-02-27T22:52:03.547Z,42.41
2019-02-27T22:54:29.362Z,42.11
2019-02-27T22:56:55.183Z,42.23
2019-02-27T22:59:21.030Z,42.15
2019-02-27T23:01:50.831Z,42.25
2019-02-27T23:04:17.064Z,42.03
2019-02-27T23:06:43.740Z,42.33
2019-02-27T23:09:12.097Z,42.04
2019-02-27T23:11:39.621Z,41.96
2019-02-27T23:14:05.636Z,42.08
2019-02-27T23:16:31.447Z,41.65
2019-02-27T23:18:57.375Z,41.72
2019-02-27T23:21:23.194Z,41.54
2019-02-27T23:23:49.133Z,41.61
2019-02-27T23:26:19.751Z,41.65
2019-02-27T23:28:42.869Z,41.77
2019-02-27T23:31:08.987Z,41.94
2019-02-27T23:33:36.631Z,42.17
2019-02-27T23:36:02.693Z,42.66
2019-02-27T23:38:28.661Z,43.01
2019-02-27T23:40:54.565Z,42.70
2019-02-27T23:43:20.671Z,42.54
2019-02-27T23:45:46.590Z,42.86
2019-02-27T23:48:12.752Z,42.47
2019-02-27T23:50:38.848Z,42.57
2019-02-27T23:53:04.959Z,42.63
2019-02-27T23:55:30.896Z,42.52
2019-02-27T23:57:57.924Z,42.53
